createdAt,value
2023-01-06T00:01:21.939Z,94.66
2023-01-06T00:03:25.513Z,94.03
2023-01-06T00:05:29.370Z,93.91
2023-01-06T00:07:34.443Z,94.07
2023-01-06T00:09:40.289Z,94.09
2023-01-06T00:11:44.069Z,94.06
2023-01-06T00:13:47.677Z,93.71
2023-01-06T00:15:51.635Z,93.87
2023-01-06T00:17:55.859Z,93.06
2023-01-06T00:19:59.376Z,93.17
2023-01-06T00:22:03.002Z,93.00
2023-01-06T00:24:07.435Z,93.32
2023-01-06T00:26:13.114Z,93.21
2023-01-06T00:28:16.705Z,92.97
2023-01-06T00:30:20.284Z,93.29
2023-01-06T00:32:23.878Z,92.80
2023-01-06T00:34:28.647Z,93.11
2023-01-06T00:36:32.253Z,93.35
2023-01-06T00:38:37.329Z,93.29
2023-01-06T00:40:41.022Z,92.72
2023-01-06T00:42:45.940Z,92.65
2023-01-06T00:44:49.814Z,92.75
2023-01-06T00:46:53.289Z,92.57
2023-01-06T00:49:07.237Z,92.11
2023-01-06T00:51:10.854Z,91.89
2023-01-06T00:53:14.363Z,92.05
2023-01-06T00:55:19.936Z,92.20
2023-01-06T00:57:23.864Z,92.11
2023-01-06T00:59:29.456Z,92.42
2023-01-06T01:01:33.203Z,92.45
2023-01-06T01:03:38.805Z,92.39
2023-01-06T01:05:42.474Z,92.60
2023-01-06T01:07:46.252Z,92.79
2023-01-06T01:09:50.415Z,92.77
2023-01-06T01:12:13.068Z,92.79
2023-01-06T01:14:18.362Z,93.05
2023-01-06T01:16:24.379Z,93.08
2023-01-06T01:18:27.987Z,93.33
2023-01-06T01:20:33.233Z,93.03
2023-01-06T01:22:37.549Z,92.98
2023-01-06T01:24:41.212Z,93.15
2023-01-06T01:26:44.913Z,93.12
2023-01-06T01:28:48.442Z,93.06
2023-01-06T01:30:51.948Z,93.14
2023-01-06T01:32:57.021Z,92.88
2023-01-06T01:35:01.860Z,92.76
2023-01-06T01:37:05.754Z,92.80
2023-01-06T01:39:09.369Z,92.69
2023-01-06T01:41:16.327Z,92.40
2023-01-06T01:43:20.280Z,92.25
2023-01-06T01:45:28.711Z,92.05
2023-01-06T01:47:40.581Z,91.77
2023-01-06T01:49:47.640Z,91.94
2023-01-06T01:51:53.357Z,91.87
2023-01-06T01:54:01.345Z,91.84
2023-01-06T01:56:09.920Z,92.08
2023-01-06T01:58:17.741Z,92.12
2023-01-06T02:00:21.795Z,91.82
2023-01-06T02:02:26.103Z,91.97
2023-01-06T02:04:30.504Z,92.15
2023-01-06T02:06:36.174Z,92.17
2023-01-06T02:08:42.187Z,92.02
2023-01-06T02:10:45.444Z,92.09
2023-01-06T02:12:52.414Z,92.02
2023-01-06T02:14:56.745Z,92.06
2023-01-06T02:17:17.598Z,92.26
2023-01-06T02:19:55.769Z,92.06
2023-01-06T02:22:23.167Z,91.93
2023-01-06T02:25:08.051Z,91.99
2023-01-06T02:27:37.379Z,91.81
2023-01-06T02:30:09.766Z,91.99
2023-01-06T02:32:28.617Z,91.76
2023-01-06T02:34:44.697Z,91.98
2023-01-06T02:37:00.052Z,92.20
2023-01-06T02:39:18.012Z,92.06
2023-01-06T02:41:33.103Z,92.25
2023-01-06T02:43:47.413Z,92.05
2023-01-06T02:46:00.152Z,92.56
2023-01-06T02:48:14.033Z,92.66
2023-01-06T02:50:23.361Z,92.66
2023-01-06T02:52:37.621Z,92.48
2023-01-06T02:54:47.403Z,92.40
2023-01-06T02:56:55.682Z,92.57
2023-01-06T02:59:06.463Z,92.31
2023-01-06T03:01:16.371Z,92.85
2023-01-06T03:03:24.546Z,92.69
2023-01-06T03:05:30.322Z,92.74
2023-01-06T03:07:35.561Z,92.48
2023-01-06T03:09:39.870Z,92.12
2023-01-06T03:11:47.037Z,92.10
2023-01-06T03:13:54.529Z,92.55
2023-01-06T03:15:57.869Z,92.28
2023-01-06T03:18:01.789Z,91.89
2023-01-06T03:20:08.136Z,91.96
2023-01-06T03:22:14.429Z,92.14
2023-01-06T03:24:19.580Z,92.43
2023-01-06T03:26:25.952Z,92.09
2023-01-06T03:28:29.762Z,91.96
2023-01-06T03:30:43.334Z,91.91
2023-01-06T03:32:55.251Z,91.58
2023-01-06T03:35:12.121Z,91.75
2023-01-06T03:37:26.861Z,91.82
2023-01-06T03:39:40.848Z,91.87
2023-01-06T03:42:06.111Z,91.48
2023-01-06T03:44:16.859Z,91.98
2023-01-06T03:46:26.786Z,91.93
2023-01-06T03:48:39.356Z,91.82
2023-01-06T03:50:49.849Z,92.13
2023-01-06T03:53:00.541Z,91.93
2023-01-06T03:55:09.888Z,92.40
2023-01-06T03:57:18.190Z,92.04
2023-01-06T03:59:26.671Z,92.44
2023-01-06T04:01:32.053Z,91.87
2023-01-06T04:03:36.467Z,92.06
2023-01-06T04:05:40.142Z,92.04
2023-01-06T04:07:46.534Z,91.91
2023-01-06T04:09:51.551Z,92.12
2023-01-06T04:12:12.623Z,92.31
2023-01-06T04:14:16.823Z,92.17
2023-01-06T04:16:20.493Z,92.33
2023-01-06T04:18:24.119Z,92.54
2023-01-06T04:20:31.728Z,92.44
2023-01-06T04:22:42.385Z,92.84
2023-01-06T04:24:47.323Z,92.66
2023-01-06T04:26:51.047Z,92.60
2023-01-06T04:28:54.591Z,93.12
2023-01-06T04:30:59.356Z,92.92
2023-01-06T04:33:03.372Z,93.12
2023-01-06T04:35:07.552Z,93.25
2023-01-06T04:37:11.379Z,93.17
2023-01-06T04:39:14.964Z,93.46
2023-01-06T04:41:19.896Z,93.07
2023-01-06T04:43:24.337Z,93.00
2023-01-06T04:45:27.950Z,93.09
2023-01-06T04:47:32.843Z,93.03
2023-01-06T04:49:36.540Z,92.97
2023-01-06T04:51:40.294Z,92.81
2023-01-06T04:53:43.773Z,93.10
2023-01-06T04:55:47.364Z,92.95
2023-01-06T04:57:52.289Z,92.90
2023-01-06T04:59:55.912Z,92.90
2023-01-06T05:01:59.473Z,92.85
2023-01-06T05:04:03.419Z,92.83
2023-01-06T05:06:10.133Z,92.75
2023-01-06T05:08:13.856Z,92.79
2023-01-06T05:10:17.652Z,92.89
2023-01-06T05:12:21.222Z,93.13
2023-01-06T05:14:26.257Z,93.64
2023-01-06T05:16:32.058Z,93.94
2023-01-06T05:18:35.807Z,93.85
2023-01-06T05:20:39.320Z,94.21
2023-01-06T05:22:42.961Z,94.67
2023-01-06T05:24:46.502Z,94.66
2023-01-06T05:26:50.051Z,94.84
2023-01-06T05:28:54.340Z,95.09
2023-01-06T05:31:02.388Z,95.16
2023-01-06T05:33:05.991Z,95.23
2023-01-06T05:35:10.501Z,95.69
2023-01-06T05:37:14.191Z,95.46
2023-01-06T05:39:18.023Z,95.46
2023-01-06T05:41:21.637Z,95.52
2023-01-06T05:43:25.623Z,95.35
2023-01-06T05:45:29.178Z,95.47
2023-01-06T05:47:34.315Z,95.68
2023-01-06T05:49:39.230Z,95.30
2023-01-06T05:51:42.892Z,96.03
2023-01-06T05:53:48.199Z,96.15
2023-01-06T05:55:51.884Z,95.88
2023-01-06T05:57:55.562Z,96.35
2023-01-06T05:59:59.165Z,96.44
2023-01-06T06:02:02.652Z,96.49
2023-01-06T06:04:07.870Z,96.58
2023-01-06T06:06:11.519Z,96.47
2023-01-06T06:08:15.306Z,96.82
2023-01-06T06:10:18.926Z,96.91
2023-01-06T06:12:22.473Z,97.07
2023-01-06T06:14:26.944Z,97.17
2023-01-06T06:16:30.713Z,97.31
2023-01-06T06:18:34.301Z,97.66
2023-01-06T06:20:39.353Z,97.80
2023-01-06T06:22:42.930Z,97.72
2023-01-06T06:24:46.631Z,97.70
2023-01-06T06:26:50.209Z,97.71
2023-01-06T06:28:53.840Z,97.80
2023-01-06T06:30:57.570Z,97.78
2023-01-06T06:33:01.093Z,97.95
2023-01-06T06:35:04.675Z,97.72
2023-01-06T06:37:11.833Z,97.84
2023-01-06T06:39:16.133Z,98.17
2023-01-06T06:41:20.283Z,97.94
2023-01-06T06:43:23.748Z,98.08
2023-01-06T06:45:27.392Z,98.22
2023-01-06T06:47:30.996Z,98.05
2023-01-06T06:49:34.579Z,98.02
2023-01-06T06:51:38.288Z,97.95
2023-01-06T06:53:43.184Z,98.08
2023-01-06T06:55:46.763Z,97.68
2023-01-06T06:57:50.273Z,97.85
2023-01-06T06:59:53.981Z,97.47
2023-01-06T07:01:57.635Z,97.28
2023-01-06T07:04:01.387Z,97.20
2023-01-06T07:06:05.639Z,96.87
2023-01-06T07:08:09.508Z,96.77
2023-01-06T07:10:17.196Z,96.71
2023-01-06T07:12:20.664Z,96.54
2023-01-06T07:14:24.252Z,96.54
2023-01-06T07:16:27.915Z,96.66
2023-01-06T07:18:31.413Z,96.71
2023-01-06T07:20:36.497Z,96.37
2023-01-06T07:22:40.524Z,96.44
2023-01-06T07:24:44.082Z,96.28
2023-01-06T07:26:48.950Z,95.91
2023-01-06T07:28:52.613Z,96.05
2023-01-06T07:30:56.256Z,96.15
2023-01-06T07:32:59.925Z,95.91
2023-01-06T07:35:03.649Z,95.93
2023-01-06T07:37:07.551Z,95.63
2023-01-06T07:39:11.055Z,95.89
2023-01-06T07:41:14.469Z,95.92
2023-01-06T07:43:19.819Z,96.15
2023-01-06T07:45:23.350Z,95.79
2023-01-06T07:47:26.895Z,96.12
2023-01-06T07:49:30.418Z,96.20
2023-01-06T07:51:34.374Z,96.17
2023-01-06T07:53:39.554Z,96.20
2023-01-06T07:55:43.259Z,96.41
2023-01-06T07:57:46.870Z,96.50
2023-01-06T07:59:51.853Z,96.59
2023-01-06T08:01:55.415Z,96.76
2023-01-06T08:03:59.312Z,97.14
2023-01-06T08:06:08.469Z,96.75
2023-01-06T08:08:12.628Z,96.56
2023-01-06T08:10:16.386Z,96.97
2023-01-06T08:12:19.867Z,97.25
2023-01-06T08:14:23.456Z,97.21
2023-01-06T08:16:28.549Z,97.18
2023-01-06T08:18:32.199Z,97.18
2023-01-06T08:20:35.913Z,97.62
2023-01-06T08:22:39.500Z,97.44
2023-01-06T08:24:43.120Z,97.78
2023-01-06T08:26:46.939Z,97.61
2023-01-06T08:28:50.934Z,97.32
2023-01-06T08:30:56.013Z,97.71
2023-01-06T08:33:01.719Z,97.75
2023-01-06T08:35:06.048Z,97.93
2023-01-06T08:37:09.806Z,97.87
2023-01-06T08:39:15.441Z,97.77
2023-01-06T08:41:19.147Z,98.03
2023-01-06T08:43:22.831Z,98.09
2023-01-06T08:45:26.378Z,98.19
2023-01-06T08:47:29.884Z,98.22
2023-01-06T08:49:35.113Z,98.38
2023-01-06T08:51:38.702Z,98.30
2023-01-06T08:53:44.091Z,98.21
2023-01-06T08:55:47.779Z,98.61
2023-01-06T08:57:53.888Z,98.59
2023-01-06T08:59:58.615Z,98.51
2023-01-06T09:02:05.532Z,98.30
2023-01-06T09:04:11.687Z,98.31
2023-01-06T09:06:18.226Z,98.25
2023-01-06T09:08:21.936Z,97.81
2023-01-06T09:10:26.118Z,98.21
2023-01-06T09:12:29.836Z,97.94
2023-01-06T09:14:33.412Z,97.72
2023-01-06T09:16:37.516Z,98.06
2023-01-06T09:18:47.665Z,97.99
2023-01-06T09:20:51.721Z,97.91
2023-01-06T09:22:57.836Z,98.13
2023-01-06T09:25:04.540Z,97.90
2023-01-06T09:27:09.045Z,97.60
2023-01-06T09:29:13.051Z,97.64
2023-01-06T09:31:18.619Z,97.68
2023-01-06T09:33:22.864Z,97.67
2023-01-06T09:35:26.823Z,97.88
2023-01-06T09:37:30.545Z,97.61
2023-01-06T09:39:37.586Z,97.81
2023-01-06T09:42:01.339Z,97.90
2023-01-06T09:44:07.886Z,98.04
2023-01-06T09:46:18.530Z,97.98
2023-01-06T09:48:28.028Z,97.79
2023-01-06T09:50:36.128Z,97.47
2023-01-06T09:52:43.527Z,97.38
2023-01-06T09:54:55.265Z,97.36
2023-01-06T09:57:04.401Z,97.37
2023-01-06T09:59:12.213Z,97.26
2023-01-06T10:01:22.158Z,97.28
2023-01-06T10:03:28.967Z,97.14
2023-01-06T10:05:43.283Z,97.47
2023-01-06T10:07:56.104Z,97.51
2023-01-06T10:10:13.364Z,97.06
2023-01-06T10:12:33.464Z,97.06
2023-01-06T10:14:48.660Z,97.58
2023-01-06T10:17:07.616Z,96.87
2023-01-06T10:19:21.114Z,97.12
2023-01-06T10:21:34.528Z,96.79
2023-01-06T10:23:53.574Z,96.78
2023-01-06T10:26:10.292Z,96.81
2023-01-06T10:28:21.615Z,96.67
2023-01-06T10:30:30.864Z,97.00
2023-01-06T10:32:40.580Z,96.63
2023-01-06T10:34:47.734Z,96.43
2023-01-06T10:36:58.327Z,96.72
2023-01-06T10:39:07.314Z,96.04
2023-01-06T10:41:21.365Z,95.85
2023-01-06T10:43:25.399Z,95.85
2023-01-06T10:45:34.065Z,95.48
2023-01-06T10:47:38.973Z,95.96
2023-01-06T10:49:43.211Z,94.92
2023-01-06T10:51:53.134Z,94.88
2023-01-06T10:53:59.387Z,94.33
2023-01-06T10:56:05.226Z,93.78
2023-01-06T10:58:25.927Z,94.21
2023-01-06T11:00:32.779Z,93.94
2023-01-06T11:02:37.089Z,93.13
2023-01-06T11:04:52.610Z,93.29
2023-01-06T11:06:59.190Z,93.00
2023-01-06T11:09:09.075Z,92.81
2023-01-06T11:11:33.383Z,92.39
2023-01-06T11:13:40.271Z,92.07
2023-01-06T11:15:44.794Z,91.94
2023-01-06T11:17:48.605Z,91.44
2023-01-06T11:20:08.830Z,91.10
2023-01-06T11:22:35.396Z,90.19
2023-01-06T11:24:53.277Z,90.62
2023-01-06T11:26:58.865Z,90.43
2023-01-06T11:29:19.759Z,90.26
2023-01-06T11:31:26.113Z,90.10
2023-01-06T11:33:31.943Z,90.09
2023-01-06T11:35:35.489Z,89.78
2023-01-06T11:37:42.740Z,89.63
2023-01-06T11:39:49.192Z,89.04
2023-01-06T11:42:06.571Z,89.59
2023-01-06T11:44:18.415Z,89.59
2023-01-06T11:46:25.651Z,89.92
2023-01-06T11:48:32.564Z,90.52
2023-01-06T11:50:36.420Z,90.05
2023-01-06T11:52:41.267Z,90.93
2023-01-06T11:54:45.221Z,90.26
2023-01-06T11:56:59.665Z,91.00
2023-01-06T11:59:10.087Z,90.57
2023-01-06T12:01:20.052Z,90.33
2023-01-06T12:03:31.907Z,90.29
2023-01-06T12:05:40.337Z,90.81
2023-01-06T12:07:51.330Z,90.36
2023-01-06T12:09:59.624Z,91.11
2023-01-06T12:12:08.556Z,90.54
2023-01-06T12:14:27.498Z,91.10
2023-01-06T12:16:39.561Z,90.45
2023-01-06T12:18:44.311Z,90.85
2023-01-06T12:20:51.746Z,90.58
2023-01-06T12:22:58.546Z,91.38
2023-01-06T12:25:03.675Z,91.30
2023-01-06T12:27:08.648Z,91.11
2023-01-06T12:29:18.434Z,91.13
2023-01-06T12:31:27.976Z,91.65
2023-01-06T12:33:37.056Z,91.20
2023-01-06T12:35:43.667Z,91.18
2023-01-06T12:37:49.810Z,90.71
2023-01-06T12:40:01.392Z,91.32
2023-01-06T12:42:14.338Z,90.02
2023-01-06T12:44:30.771Z,89.38
2023-01-06T12:46:41.769Z,89.41
2023-01-06T12:48:51.800Z,88.60
2023-01-06T12:51:01.526Z,88.92
2023-01-06T12:53:20.229Z,88.78
2023-01-06T12:55:34.949Z,88.08
2023-01-06T12:57:53.492Z,88.09
2023-01-06T13:00:08.181Z,88.03
2023-01-06T13:02:26.580Z,87.59
2023-01-06T13:04:49.496Z,87.75
2023-01-06T13:07:04.003Z,88.08
2023-01-06T13:09:22.420Z,87.46
2023-01-06T13:11:39.875Z,87.77
2023-01-06T13:13:56.037Z,87.64
2023-01-06T13:16:03.132Z,87.09
2023-01-06T13:18:15.996Z,87.11
2023-01-06T13:20:27.445Z,86.94
2023-01-06T13:22:44.720Z,87.30
2023-01-06T13:25:18.774Z,87.34
2023-01-06T13:27:39.279Z,87.06
2023-01-06T13:29:57.629Z,86.53
2023-01-06T13:32:18.545Z,85.97
2023-01-06T13:34:52.679Z,86.57
2023-01-06T13:37:18.186Z,85.46
2023-01-06T13:39:24.719Z,85.58
2023-01-06T13:41:33.828Z,85.78
2023-01-06T13:43:37.503Z,84.53
2023-01-06T13:45:44.484Z,84.80
2023-01-06T13:47:50.211Z,84.65
2023-01-06T13:49:54.380Z,85.07
2023-01-06T13:51:58.813Z,83.79
2023-01-06T13:54:03.999Z,83.56
2023-01-06T13:56:26.996Z,82.71
2023-01-06T13:58:38.167Z,83.15
2023-01-06T14:00:44.650Z,83.20
2023-01-06T14:03:25.962Z,82.57
2023-01-06T14:05:57.713Z,82.72
2023-01-06T14:08:03.307Z,83.06
2023-01-06T14:10:28.845Z,82.80
2023-01-06T14:12:35.829Z,83.44
2023-01-06T14:14:40.318Z,82.98
2023-01-06T14:16:47.103Z,83.11
2023-01-06T14:18:52.506Z,83.57
2023-01-06T14:21:02.611Z,83.73
2023-01-06T14:23:18.574Z,83.24
2023-01-06T14:25:26.004Z,83.53
2023-01-06T14:28:08.306Z,83.68
2023-01-06T14:30:22.364Z,83.69
2023-01-06T14:33:01.597Z,83.99
2023-01-06T14:35:11.330Z,83.63
2023-01-06T14:37:17.074Z,83.81
2023-01-06T14:39:26.066Z,83.23
2023-01-06T14:41:34.507Z,84.07
2023-01-06T14:43:54.592Z,83.68
2023-01-06T14:46:01.744Z,84.22
2023-01-06T14:48:09.497Z,83.85
2023-01-06T14:50:18.719Z,84.58
2023-01-06T14:52:30.302Z,84.17
2023-01-06T14:54:38.911Z,84.13
2023-01-06T14:56:54.436Z,85.05
2023-01-06T14:59:12.401Z,85.00
2023-01-06T15:01:25.124Z,84.89
2023-01-06T15:03:30.339Z,85.44
2023-01-06T15:05:37.221Z,85.53
2023-01-06T15:07:40.737Z,85.94
2023-01-06T15:09:44.358Z,86.67
2023-01-06T15:11:49.224Z,86.67
2023-01-06T15:13:53.455Z,87.25
2023-01-06T15:16:04.865Z,86.84
2023-01-06T15:18:09.391Z,87.67
2023-01-06T15:20:14.837Z,88.21
2023-01-06T15:22:24.396Z,87.84
2023-01-06T15:24:31.357Z,88.08
2023-01-06T15:26:34.917Z,88.27
2023-01-06T15:28:39.890Z,89.01
2023-01-06T15:30:51.436Z,88.84
2023-01-06T15:32:56.202Z,89.78
2023-01-06T15:35:00.989Z,90.32
2023-01-06T15:37:08.552Z,90.22
2023-01-06T15:39:15.201Z,91.08
2023-01-06T15:43:50.173Z,91.94
2023-01-06T15:46:00.126Z,91.81
2023-01-06T15:48:12.440Z,93.00
2023-01-06T15:50:20.722Z,93.04
2023-01-06T15:52:28.072Z,93.53
2023-01-06T15:54:35.932Z,94.11
2023-01-06T15:56:41.770Z,94.38
2023-01-06T15:58:45.651Z,94.53
2023-01-06T16:01:02.371Z,94.32
2023-01-06T16:03:07.640Z,94.66
2023-01-06T16:05:36.019Z,94.47
2023-01-06T16:07:43.318Z,93.60
2023-01-06T16:09:47.020Z,93.60
2023-01-06T16:11:57.775Z,92.88
2023-01-06T16:14:01.439Z,92.96
2023-01-06T16:16:25.558Z,92.58
2023-01-06T16:18:32.390Z,92.87
2023-01-06T16:20:36.160Z,92.14
2023-01-06T16:22:50.286Z,92.13
2023-01-06T16:24:54.686Z,92.68
2023-01-06T16:27:02.417Z,92.50
2023-01-06T16:29:26.056Z,93.18
2023-01-06T16:31:31.966Z,92.88
2023-01-06T16:33:39.520Z,93.37
2023-01-06T16:35:43.679Z,93.50
2023-01-06T16:37:47.493Z,94.10
2023-01-06T16:39:58.858Z,94.25
2023-01-06T16:42:41.083Z,94.24
2023-01-06T16:44:44.915Z,94.65
2023-01-06T16:46:49.865Z,93.90
2023-01-06T16:48:56.294Z,93.86
2023-01-06T16:51:00.041Z,94.52
2023-01-06T16:53:12.344Z,94.41
2023-01-06T16:55:17.948Z,93.95
2023-01-06T16:57:21.934Z,94.21
2023-01-06T16:59:27.599Z,93.41
2023-01-06T17:01:31.385Z,94.13
2023-01-06T17:03:39.506Z,93.89
2023-01-06T17:05:43.210Z,93.55
2023-01-06T17:07:46.927Z,93.77
2023-01-06T17:09:51.530Z,93.79
2023-01-06T17:11:55.538Z,93.82
2023-01-06T17:14:02.209Z,94.33
2023-01-06T17:16:15.737Z,95.12
2023-01-06T17:18:25.651Z,94.70
2023-01-06T17:20:32.028Z,95.52
2023-01-06T17:22:35.637Z,95.75
2023-01-06T17:24:39.160Z,96.41
2023-01-06T17:26:49.502Z,95.85
2023-01-06T17:28:55.536Z,96.19
2023-01-06T17:31:00.613Z,96.79
2023-01-06T17:33:05.425Z,96.08
2023-01-06T17:35:22.737Z,96.45
2023-01-06T17:37:29.982Z,96.52
2023-01-06T17:39:39.012Z,96.89
2023-01-06T17:41:43.055Z,96.95
2023-01-06T17:43:47.700Z,97.76
2023-01-06T17:45:51.548Z,97.52
2023-01-06T17:47:56.118Z,97.38
2023-01-06T17:50:01.488Z,97.15
2023-01-06T17:52:22.554Z,97.71
2023-01-06T17:54:45.034Z,98.60
2023-01-06T17:56:49.225Z,98.66
2023-01-06T17:58:52.833Z,99.72
2023-01-06T18:00:57.197Z,100.00
2023-01-06T18:03:04.036Z,100.00
2023-01-06T18:05:58.646Z,100.00
2023-01-06T18:08:08.171Z,100.00
2023-01-06T18:10:18.013Z,100.00
2023-01-06T18:12:22.307Z,100.00
2023-01-06T18:14:33.152Z,100.00
2023-01-06T18:16:37.073Z,100.00
2023-01-06T18:18:42.519Z,100.00
2023-01-06T18:20:48.652Z,100.00
2023-01-06T18:22:52.371Z,100.00
2023-01-06T18:24:59.416Z,100.00
2023-01-06T18:27:08.132Z,100.00
2023-01-06T18:29:16.916Z,100.00
2023-01-06T18:31:23.989Z,100.00
2023-01-06T18:33:29.901Z,100.00
2023-01-06T18:35:33.542Z,100.00
2023-01-06T18:37:37.387Z,100.00
2023-01-06T18:39:42.978Z,100.00
2023-01-06T18:41:46.661Z,100.00
2023-01-06T18:43:51.756Z,100.00
2023-01-06T18:45:57.689Z,100.00
2023-01-06T18:48:05.525Z,100.00
2023-01-06T18:50:27.873Z,100.00
2023-01-06T18:52:50.149Z,100.00
2023-01-06T18:54:56.334Z,100.00
2023-01-06T18:57:00.577Z,100.00
2023-01-06T18:59:15.057Z,100.00
2023-01-06T19:01:21.042Z,100.00
2023-01-06T19:03:35.304Z,100.00
2023-01-06T19:05:39.790Z,100.00
2023-01-06T19:07:43.499Z,100.00
2023-01-06T19:09:48.881Z,100.00
2023-01-06T19:12:01.669Z,100.00
2023-01-06T19:14:17.080Z,100.00
2023-01-06T19:16:36.123Z,100.00
2023-01-06T19:18:39.890Z,100.00
2023-01-06T19:20:45.915Z,100.00
2023-01-06T19:22:50.435Z,100.00
2023-01-06T19:25:04.707Z,100.00
2023-01-06T19:27:43.336Z,100.00
2023-01-06T19:29:48.691Z,100.00
2023-01-06T19:31:57.202Z,100.00
2023-01-06T19:34:02.793Z,100.00
2023-01-06T19:36:41.341Z,100.00
2023-01-06T19:38:45.727Z,100.00
2023-01-06T19:40:49.411Z,100.00
2023-01-06T19:42:54.038Z,100.00
2023-01-06T19:45:03.057Z,100.00
2023-01-06T19:47:20.027Z,100.00
2023-01-06T19:49:25.421Z,100.00
2023-01-06T19:51:34.309Z,100.00
2023-01-06T19:53:44.478Z,100.00
2023-01-06T19:55:48.139Z,100.00
2023-01-06T19:57:53.475Z,100.00
2023-01-06T20:00:01.854Z,100.00
2023-01-06T20:02:28.601Z,100.00
2023-01-06T20:04:32.385Z,100.00
2023-01-06T20:06:35.961Z,100.00
2023-01-06T20:08:41.420Z,100.00
2023-01-06T20:10:45.040Z,100.00
2023-01-06T20:12:48.970Z,100.00
2023-01-06T20:14:52.626Z,99.91
2023-01-06T20:16:59.698Z,99.69
2023-01-06T20:19:03.421Z,99.57
2023-01-06T20:21:08.005Z,99.18
2023-01-06T20:23:12.480Z,98.99
2023-01-06T20:25:16.303Z,99.04
2023-01-06T20:27:19.909Z,99.56
2023-01-06T20:29:23.443Z,100.00
2023-01-06T20:31:27.016Z,100.00
2023-01-06T20:33:32.418Z,100.00
2023-01-06T20:35:35.988Z,100.00
2023-01-06T20:37:40.349Z,100.00
2023-01-06T20:39:45.422Z,100.00
2023-01-06T20:41:49.039Z,100.00
2023-01-06T20:43:53.031Z,100.00
2023-01-06T20:45:57.179Z,100.00
2023-01-06T20:48:00.838Z,100.00
2023-01-06T20:50:07.761Z,100.00
2023-01-06T20:52:11.382Z,100.00
2023-01-06T20:54:15.326Z,100.00
2023-01-06T20:56:19.204Z,100.00
2023-01-06T20:58:23.320Z,100.00
2023-01-06T21:00:27.165Z,100.00
2023-01-06T21:02:31.135Z,100.00
2023-01-06T21:04:34.909Z,100.00
2023-01-06T21:06:40.176Z,100.00
2023-01-06T21:08:43.765Z,100.00
2023-01-06T21:10:47.816Z,100.00
2023-01-06T21:12:51.614Z,100.00
2023-01-06T21:14:55.487Z,100.00
2023-01-06T21:16:59.533Z,100.00
2023-01-06T21:19:03.365Z,100.00
2023-01-06T21:21:08.349Z,100.00
2023-01-06T21:23:14.088Z,100.00
2023-01-06T21:25:20.035Z,100.00
2023-01-06T21:27:24.044Z,100.00
2023-01-06T21:29:28.008Z,100.00
2023-01-06T21:31:31.712Z,100.00
2023-01-06T21:33:35.329Z,100.00
2023-01-06T21:35:38.975Z,100.00
2023-01-06T21:37:42.711Z,100.00
2023-01-06T21:39:48.422Z,100.00
2023-01-06T21:42:09.641Z,100.00
2023-01-06T21:44:13.337Z,100.00
2023-01-06T21:46:17.109Z,100.00
2023-01-06T21:48:22.625Z,100.00
2023-01-06T21:50:27.105Z,100.00
2023-01-06T21:52:30.800Z,100.00
2023-01-06T21:54:34.669Z,100.00
2023-01-06T21:56:39.709Z,100.00
2023-01-06T21:58:43.283Z,100.00
2023-01-06T22:00:47.114Z,100.00
2023-01-06T22:02:53.425Z,100.00
2023-01-06T22:04:57.157Z,100.00
2023-01-06T22:07:04.244Z,100.00
2023-01-06T22:09:09.875Z,100.00
2023-01-06T22:11:13.832Z,100.00
2023-01-06T22:13:21.356Z,100.00
2023-01-06T22:15:25.574Z,100.00
2023-01-06T22:17:29.366Z,100.00
2023-01-06T22:19:33.509Z,100.00
2023-01-06T22:21:38.053Z,100.00
2023-01-06T22:23:41.814Z,100.00
2023-01-06T22:25:45.570Z,100.00
2023-01-06T22:27:49.183Z,100.00
2023-01-06T22:29:54.078Z,100.00
2023-01-06T22:32:02.752Z,100.00
2023-01-06T22:34:08.506Z,100.00
2023-01-06T22:36:13.113Z,100.00
2023-01-06T22:38:16.991Z,100.00
2023-01-06T22:40:21.620Z,100.00
2023-01-06T22:42:25.472Z,100.00
2023-01-06T22:44:29.243Z,100.00
2023-01-06T22:46:34.333Z,100.00
2023-01-06T22:48:38.801Z,100.00
2023-01-06T22:50:42.530Z,100.00
2023-01-06T22:52:46.160Z,100.00
2023-01-06T22:54:49.722Z,100.00
2023-01-06T22:56:53.425Z,100.00
2023-01-06T22:58:57.325Z,100.00
2023-01-06T23:01:01.268Z,100.00
2023-01-06T23:03:06.277Z,100.00
2023-01-06T23:05:10.977Z,100.00
2023-01-06T23:07:14.664Z,100.00
2023-01-06T23:09:18.523Z,100.00
2023-01-06T23:11:22.570Z,100.00
2023-01-06T23:13:26.788Z,100.00
2023-01-06T23:15:30.187Z,100.00
2023-01-06T23:17:33.837Z,100.00
2023-01-06T23:19:38.989Z,100.00
2023-01-06T23:21:42.924Z,100.00
2023-01-06T23:23:47.587Z,100.00
2023-01-06T23:25:51.134Z,100.00
2023-01-06T23:27:54.867Z,100.00
2023-01-06T23:29:58.370Z,100.00
2023-01-06T23:32:02.111Z,100.00
2023-01-06T23:34:07.593Z,100.00
2023-01-06T23:36:15.672Z,100.00
2023-01-06T23:38:19.353Z,100.00
2023-01-06T23:40:23.070Z,100.00
2023-01-06T23:42:28.650Z,100.00
2023-01-06T23:44:32.353Z,100.00
2023-01-06T23:46:37.782Z,100.00
2023-01-06T23:48:42.220Z,100.00
2023-01-06T23:50:51.540Z,100.00
2023-01-06T23:52:56.852Z,100.00
2023-01-06T23:55:00.287Z,100.00
2023-01-06T23:57:03.971Z,100.00
2023-01-06T23:59:09.121Z,100.00
